Glorieta, NM (87535)

9:07 AM MDT on April 18, 2015 (GMT -0600)
mountain glorieta | | Change Station
CLOSE
Current Station
Personal Weather Station
Location: Glorieta, NM
Elevation: 7116 ft
Nearby Weather Stations

Elev 7116 ft 35.57 °N, 105.72 °W | Updated 6 minutes ago

Overcast
Overcast
34.0 °F
Feels Like 34 °F
N
0.0
Wind Variable Wind from West

Today
High -- | Low -- °F
--% Chance of Precip.
Yesterday
High -- | Low -- °F
Precip. -- in
6:26 AM 7:38 PM
Waning Crescent, 0% visible
Pressure 29.95 in
Visibility 7.0 miles
Clouds Overcast 2300 ft
Windchill 34 °F
Dew Point 32 °F
Humidity 94%
Rainfall 0.00 in
Snow Depth Not available.
UV 1 out of 12
Pollen 9.60 out of 12
Air Quality Not available.
Flu Activity Local Activity
METAR KSAF 181453Z 01009KT 7SM OVC023 01/M01 A3001 RMK AO2 SNE19 SLP142 P0003 60005 T00061011 53006

More Conditions Fewer Conditions

Pressure 29.95 in
Visibility 7.0 miles
Clouds Overcast 2300 ft
Windchill 34 °F
Dew Point 32 °F
Humidity 94%
Rainfall 0.00 in
Snow Depth Not available.
UV 1 out of 12
Pollen 9.60 out of 12
Air Quality Not available.
Flu Activity Local Activity
METAR KSAF 181453Z 01009KT 7SM OVC023 01/M01 A3001 RMK AO2 SNE19 SLP142 P0003 60005 T00061011 53006

More Conditions Fewer Conditions

Nowcast | as of 8:38 am MDT on April 18, 2015

Before 10 am...light snow and patchy of fog will continue impacting the jemez...the southern Sangre de Cristo Mountains and Sandia and Manzano Mountains. A mix of rain and snow will be possible farther east into the northeast and east Central Plains. Favored locations for light snowfall will be along west facing slopes from Truchas south to Santa Fe and Pecos. An additional 1 to 2 inches of snowfall is possible...with locally slick travel in the higher terrain. Snow should start to taper off to spotty showers by mid morning to late morning.

×

10-Day Weather Forecast

Almanac

Astronomy

Apr. 18, 2015 Rise Set
Actual Time
Civil Twilight
Nautical Twilight
Astronomical Twilight
Moon
Length of Visible Light
Length of Day
Tomorrow will be .
, % of the Moon is Illuminated

Today's Extremes

State Highs State Lows

Community

WunderPhotos

Upload Photos

1,814,424 photos uploaded!

WunderBlogs® & News

Nearby

Air Quality

  Air Quality AQ Index Pollutant
Not available.

Snow Depth

Station Depth Elevation

Earthquake Activity

City Distance Mag. Time & Date
Minimum magnitude displayed is 2.5.

Coastal Water Temperatures

Place Temperature

Stations

Nearby Weather Stations

Station Location Temp. Windchill Dew Point Humidity Wind Precip. Elev Updated Type